createdAt,value
2022-07-25T00:00:37.011Z,26.00
2022-07-25T00:03:39.502Z,26.00
2022-07-25T00:06:42.972Z,25.90
2022-07-25T00:09:44.846Z,25.90
2022-07-25T00:12:48.035Z,25.90
2022-07-25T00:15:49.850Z,25.90
2022-07-25T00:18:51.678Z,25.90
2022-07-25T00:21:53.550Z,25.90
2022-07-25T00:24:55.540Z,25.90
2022-07-25T00:27:58.483Z,25.90
2022-07-25T00:31:00.527Z,26.00
2022-07-25T00:34:03.481Z,26.00
2022-07-25T00:37:05.601Z,26.00
2022-07-25T00:40:08.160Z,26.00
2022-07-25T00:43:10.023Z,25.90
2022-07-25T00:46:18.811Z,25.90
2022-07-25T00:49:21.346Z,25.90
2022-07-25T00:52:24.599Z,25.90
2022-07-25T00:55:27.331Z,25.90
2022-07-25T00:58:29.642Z,25.90
2022-07-25T01:01:31.529Z,25.90
2022-07-25T01:04:33.951Z,25.90
2022-07-25T01:07:37.057Z,25.90
2022-07-25T01:10:39.291Z,25.90
2022-07-25T01:13:41.507Z,25.90
2022-07-25T01:16:43.367Z,25.90
2022-07-25T01:19:46.365Z,25.90
2022-07-25T01:22:48.536Z,25.90
2022-07-25T01:25:50.526Z,25.90
2022-07-25T01:28:52.706Z,25.90
2022-07-25T01:31:54.581Z,25.90
2022-07-25T01:34:56.429Z,25.80
2022-07-25T01:37:58.322Z,25.80
2022-07-25T01:41:00.101Z,25.80
2022-07-25T01:44:01.972Z,25.80
2022-07-25T01:47:04.172Z,25.80
2022-07-25T01:50:07.065Z,25.80
2022-07-25T01:53:09.054Z,25.80
2022-07-25T01:56:11.025Z,25.80
2022-07-25T01:59:14.822Z,25.80
2022-07-25T02:02:16.609Z,25.70
2022-07-25T02:05:18.390Z,25.70
2022-07-25T02:08:20.263Z,25.70
2022-07-25T02:11:22.111Z,25.70
2022-07-25T02:14:23.911Z,25.70
2022-07-25T02:17:26.791Z,25.70
2022-07-25T02:20:28.678Z,25.70
2022-07-25T02:23:30.438Z,25.70
2022-07-25T02:26:32.231Z,25.70
2022-07-25T02:29:34.243Z,25.70
2022-07-25T02:32:36.011Z,25.70
2022-07-25T02:35:37.808Z,25.70
2022-07-25T02:38:39.695Z,25.60
2022-07-25T02:41:42.251Z,25.60
2022-07-25T02:44:44.039Z,25.60
2022-07-25T02:47:45.862Z,25.60
2022-07-25T02:50:47.727Z,25.60
2022-07-25T02:53:58.430Z,25.60
2022-07-25T02:57:00.741Z,25.60
2022-07-25T03:00:03.706Z,25.60
2022-07-25T03:03:05.462Z,25.60
2022-07-25T03:06:07.751Z,25.60
2022-07-25T03:09:09.524Z,25.60
2022-07-25T03:12:11.334Z,25.60
2022-07-25T03:15:13.979Z,25.60
2022-07-25T03:18:15.753Z,25.60
2022-07-25T03:21:17.547Z,25.60
2022-07-25T03:24:19.354Z,25.50
2022-07-25T03:27:21.180Z,25.50
2022-07-25T03:30:23.016Z,25.50
2022-07-25T03:33:24.778Z,25.50
2022-07-25T03:36:26.628Z,25.50
2022-07-25T03:39:29.235Z,25.50
2022-07-25T03:42:35.414Z,25.50
2022-07-25T03:45:37.739Z,25.50
2022-07-25T03:48:39.685Z,25.50
2022-07-25T03:51:42.389Z,25.50
2022-07-25T03:54:44.165Z,25.50
2022-07-25T03:57:45.987Z,25.50
2022-07-25T04:00:48.809Z,25.50
2022-07-25T04:03:50.647Z,25.50
2022-07-25T04:06:52.446Z,25.50
2022-07-25T04:09:54.313Z,25.50
2022-07-25T04:12:56.118Z,25.50
2022-07-25T04:15:57.963Z,25.50
2022-07-25T04:19:01.058Z,25.50
2022-07-25T04:22:03.775Z,25.40
2022-07-25T04:25:06.434Z,25.50
2022-07-25T04:28:08.441Z,25.50
2022-07-25T04:31:10.367Z,25.50
2022-07-25T04:34:12.191Z,25.50
2022-07-25T04:37:13.977Z,25.50
2022-07-25T04:40:15.855Z,25.40
2022-07-25T04:43:17.650Z,25.40
2022-07-25T04:46:20.755Z,25.40
2022-07-25T04:49:22.640Z,25.50
2022-07-25T04:52:24.418Z,25.40
2022-07-25T04:55:26.188Z,25.40
2022-07-25T04:58:28.078Z,25.40
2022-07-25T05:01:29.872Z,25.40
2022-07-25T05:04:31.670Z,25.40
2022-07-25T05:07:33.439Z,25.40
2022-07-25T05:10:35.204Z,25.40
2022-07-25T05:13:36.965Z,25.40
2022-07-25T05:16:39.073Z,25.50
2022-07-25T05:19:41.255Z,25.50
2022-07-25T05:22:43.203Z,25.50
2022-07-25T05:25:45.082Z,25.50
2022-07-25T05:28:46.908Z,25.50
2022-07-25T05:31:48.789Z,25.50
2022-07-25T05:34:50.715Z,25.50
2022-07-25T05:37:52.460Z,25.50
2022-07-25T05:40:54.550Z,25.50
2022-07-25T05:43:56.332Z,25.60
2022-07-25T05:46:58.210Z,25.60
2022-07-25T05:49:59.984Z,25.60
2022-07-25T05:53:01.896Z,25.60
2022-07-25T05:56:04.065Z,25.60
2022-07-25T05:59:05.921Z,25.60
2022-07-25T06:02:08.008Z,25.60
2022-07-25T06:05:10.208Z,25.50
2022-07-25T06:08:12.604Z,25.60
2022-07-25T06:11:14.406Z,25.60
2022-07-25T06:14:16.672Z,25.60
2022-07-25T06:17:19.517Z,25.60
2022-07-25T06:20:21.537Z,25.60
2022-07-25T06:23:23.455Z,25.60
2022-07-25T06:26:29.416Z,25.60
2022-07-25T06:29:31.222Z,25.60
2022-07-25T06:32:33.010Z,25.60
2022-07-25T06:35:34.973Z,25.60
2022-07-25T06:38:36.823Z,25.60
2022-07-25T06:41:38.648Z,25.70
2022-07-25T06:44:40.484Z,25.60
2022-07-25T06:47:43.196Z,25.70
2022-07-25T06:50:45.467Z,25.70
2022-07-25T06:53:47.298Z,25.60
2022-07-25T06:56:49.199Z,25.60
2022-07-25T06:59:51.244Z,25.70
2022-07-25T07:03:03.350Z,25.70
2022-07-25T07:06:06.664Z,25.70
2022-07-25T07:09:08.444Z,25.70
2022-07-25T07:12:10.863Z,25.70
2022-07-25T07:15:13.454Z,25.70
2022-07-25T07:18:15.374Z,25.70
2022-07-25T07:21:21.386Z,25.70
2022-07-25T07:24:24.673Z,25.70
2022-07-25T07:27:26.673Z,25.70
2022-07-25T07:30:44.386Z,25.70
2022-07-25T07:33:50.238Z,25.70
2022-07-25T07:36:52.489Z,25.70
2022-07-25T07:39:54.272Z,25.70
2022-07-25T07:42:57.158Z,25.70
2022-07-25T07:46:01.152Z,25.70
2022-07-25T07:49:03.995Z,25.70
2022-07-25T07:52:06.306Z,25.70
2022-07-25T07:55:27.490Z,25.70
2022-07-25T07:58:29.776Z,25.70
2022-07-25T08:01:31.791Z,25.70
2022-07-25T08:04:33.687Z,25.80
2022-07-25T08:07:35.591Z,25.80
2022-07-25T08:10:39.835Z,25.70
2022-07-25T08:13:41.772Z,25.70
2022-07-25T08:16:43.582Z,25.70
2022-07-25T08:19:45.360Z,25.80
2022-07-25T08:22:50.842Z,25.80
2022-07-25T08:25:55.004Z,25.70
2022-07-25T08:29:17.661Z,25.70
2022-07-25T08:32:19.147Z,25.70
2022-07-25T08:35:22.381Z,25.80
2022-07-25T08:38:26.405Z,25.80
2022-07-25T08:41:29.066Z,25.80
2022-07-25T08:44:36.939Z,25.70
2022-07-25T08:47:40.607Z,25.80
2022-07-25T08:50:43.230Z,25.70
2022-07-25T08:53:48.614Z,25.70
2022-07-25T08:56:51.484Z,25.80
2022-07-25T08:59:53.669Z,25.80
2022-07-25T09:02:58.660Z,25.80
2022-07-25T09:06:13.354Z,25.80
2022-07-25T09:09:15.282Z,25.80
2022-07-25T09:12:17.056Z,25.80
2022-07-25T09:15:40.235Z,25.80
2022-07-25T09:18:45.393Z,25.80
2022-07-25T09:22:00.244Z,25.80
2022-07-25T09:25:02.064Z,25.80
2022-07-25T09:28:17.487Z,25.80
2022-07-25T09:31:19.509Z,25.80
2022-07-25T09:34:34.497Z,25.80
2022-07-25T09:37:36.274Z,25.80
2022-07-25T09:40:38.569Z,25.80
2022-07-25T09:43:44.339Z,25.80
2022-07-25T09:46:46.324Z,25.80
2022-07-25T09:49:48.262Z,25.80
2022-07-25T09:52:52.239Z,25.80
2022-07-25T09:55:55.116Z,25.80
2022-07-25T09:58:58.346Z,25.90
2022-07-25T10:02:09.182Z,25.80
2022-07-25T10:05:50.387Z,25.90
2022-07-25T10:08:54.343Z,25.90
2022-07-25T10:12:05.944Z,25.90
2022-07-25T10:15:14.344Z,25.90
2022-07-25T10:18:19.918Z,25.90
2022-07-25T10:21:27.039Z,25.90
2022-07-25T10:24:38.900Z,25.90
2022-07-25T10:27:50.794Z,25.90
2022-07-25T10:30:58.627Z,25.90
2022-07-25T10:34:06.777Z,25.90
2022-07-25T10:37:13.954Z,25.90
2022-07-25T10:40:44.416Z,25.90
2022-07-25T10:43:48.793Z,25.90
2022-07-25T10:46:50.742Z,25.90
2022-07-25T10:53:35.523Z,25.90
2022-07-25T10:56:37.287Z,25.90
2022-07-25T10:59:40.921Z,25.90
2022-07-25T11:02:43.051Z,25.90
2022-07-25T11:05:48.767Z,25.90
2022-07-25T11:08:50.695Z,25.90
2022-07-25T11:11:54.849Z,25.90
2022-07-25T11:15:07.299Z,25.90
2022-07-25T11:18:09.132Z,25.90
2022-07-25T11:21:10.957Z,25.90
2022-07-25T11:24:12.902Z,25.90
2022-07-25T11:27:40.697Z,25.90
2022-07-25T11:30:42.463Z,25.90
2022-07-25T11:33:47.342Z,26.00
2022-07-25T11:36:49.855Z,26.00
2022-07-25T11:39:53.011Z,25.90
2022-07-25T11:42:57.541Z,25.90
2022-07-25T11:46:07.426Z,25.90
2022-07-25T11:49:09.778Z,26.00
2022-07-25T11:52:38.381Z,26.00
2022-07-25T11:55:42.239Z,26.00
2022-07-25T11:58:49.511Z,26.00
2022-07-25T12:01:51.640Z,26.00
2022-07-25T12:05:03.300Z,26.00
2022-07-25T12:08:36.949Z,26.00
2022-07-25T12:11:38.947Z,26.00
2022-07-25T12:14:44.055Z,26.10
2022-07-25T12:17:46.417Z,26.00
2022-07-25T12:20:48.192Z,26.00
2022-07-25T12:23:49.966Z,26.00
2022-07-25T12:26:52.245Z,26.00
2022-07-25T12:29:54.016Z,26.00
2022-07-25T12:32:57.040Z,26.10
2022-07-25T12:36:02.063Z,26.10
2022-07-25T12:39:07.465Z,26.10
2022-07-25T12:42:09.405Z,26.00
2022-07-25T12:45:12.777Z,26.00
2022-07-25T12:48:15.400Z,26.10
2022-07-25T12:51:17.236Z,26.10
2022-07-25T12:54:22.377Z,26.10
2022-07-25T12:57:24.670Z,26.00
2022-07-25T13:00:27.327Z,26.10
2022-07-25T13:03:29.172Z,26.10
2022-07-25T13:06:33.424Z,26.10
2022-07-25T13:09:38.671Z,26.10
2022-07-25T13:12:40.684Z,26.10
2022-07-25T13:15:42.544Z,26.10
2022-07-25T13:18:44.424Z,26.10
2022-07-25T13:21:46.223Z,26.10
2022-07-25T13:24:48.013Z,26.10
2022-07-25T13:27:49.906Z,26.10
2022-07-25T13:30:51.868Z,26.10
2022-07-25T13:33:53.638Z,26.10
2022-07-25T13:36:55.467Z,26.10
2022-07-25T13:39:57.346Z,26.10
2022-07-25T13:42:59.204Z,26.10
2022-07-25T13:46:01.882Z,26.10
2022-07-25T13:49:04.123Z,26.10
2022-07-25T13:52:06.499Z,26.10
2022-07-25T13:55:10.296Z,26.10
2022-07-25T13:58:12.116Z,26.10
2022-07-25T14:01:13.936Z,26.10
2022-07-25T14:04:15.895Z,26.10
2022-07-25T14:07:17.740Z,26.10
2022-07-25T14:10:19.602Z,26.10
2022-07-25T14:13:21.438Z,26.10
2022-07-25T14:16:23.251Z,26.10
2022-07-25T14:19:25.101Z,26.10
2022-07-25T14:22:27.169Z,26.10
2022-07-25T14:25:28.950Z,26.10
2022-07-25T14:28:30.725Z,26.10
2022-07-25T14:31:32.941Z,26.10
2022-07-25T14:34:35.569Z,26.10
2022-07-25T14:37:37.888Z,26.10
2022-07-25T14:40:39.654Z,26.20
2022-07-25T14:43:41.944Z,26.20
2022-07-25T14:46:44.242Z,26.10
2022-07-25T14:49:46.100Z,26.10
2022-07-25T14:52:47.927Z,26.20
2022-07-25T14:55:49.769Z,26.20
2022-07-25T14:58:51.579Z,26.20
2022-07-25T15:01:53.367Z,26.10
2022-07-25T15:04:55.453Z,26.10
2022-07-25T15:07:57.258Z,26.20
2022-07-25T15:10:59.042Z,26.20
2022-07-25T15:14:00.849Z,26.10
2022-07-25T15:17:02.765Z,26.20
2022-07-25T15:20:05.031Z,26.20
2022-07-25T15:23:06.896Z,26.20
2022-07-25T15:26:11.866Z,26.20
2022-07-25T15:29:20.263Z,26.20
2022-07-25T15:32:22.107Z,26.20
2022-07-25T15:35:23.927Z,26.20
2022-07-25T15:38:26.460Z,26.20
2022-07-25T15:41:28.371Z,26.20
2022-07-25T15:44:32.565Z,26.20
2022-07-25T15:47:34.428Z,26.20
2022-07-25T15:50:39.052Z,26.20
2022-07-25T15:53:41.082Z,26.20
2022-07-25T15:56:42.965Z,26.20
2022-07-25T15:59:44.829Z,26.20
2022-07-25T16:02:46.970Z,26.20
2022-07-25T16:05:48.769Z,26.20
2022-07-25T16:08:50.605Z,26.20
2022-07-25T16:11:59.226Z,26.20
2022-07-25T16:15:01.161Z,26.20
2022-07-25T16:18:03.369Z,26.20
2022-07-25T16:21:05.704Z,26.20
2022-07-25T16:24:09.353Z,26.20
2022-07-25T16:27:11.311Z,26.20
2022-07-25T16:30:13.717Z,26.20
2022-07-25T16:33:15.749Z,26.20
2022-07-25T16:36:17.713Z,26.30
2022-07-25T16:39:21.676Z,26.20
2022-07-25T16:42:23.460Z,26.30
2022-07-25T16:45:26.071Z,26.20
2022-07-25T16:48:28.058Z,26.20
2022-07-25T16:51:33.064Z,26.20
2022-07-25T16:54:37.110Z,26.30
2022-07-25T16:57:39.019Z,26.20
2022-07-25T17:00:40.911Z,26.20
2022-07-25T17:03:43.025Z,26.30
2022-07-25T17:06:44.925Z,26.30
2022-07-25T17:09:46.744Z,26.30
2022-07-25T17:12:48.615Z,26.30
2022-07-25T17:15:50.513Z,26.30
2022-07-25T17:18:52.401Z,26.30
2022-07-25T17:21:54.223Z,26.30
2022-07-25T17:24:56.176Z,26.30
2022-07-25T17:27:58.214Z,26.40
2022-07-25T17:31:00.096Z,26.30
2022-07-25T17:34:02.164Z,26.30
2022-07-25T17:37:06.340Z,26.30
2022-07-25T17:40:09.320Z,26.30
2022-07-25T17:43:11.162Z,26.30
2022-07-25T17:46:13.905Z,26.30
2022-07-25T17:49:15.830Z,26.30
2022-07-25T17:52:17.929Z,26.30
2022-07-25T17:55:20.139Z,26.30
2022-07-25T17:58:22.042Z,26.20
2022-07-25T18:01:23.875Z,26.30
2022-07-25T18:04:25.741Z,26.30
2022-07-25T18:07:27.513Z,26.30
2022-07-25T18:10:29.444Z,26.30
2022-07-25T18:13:31.293Z,26.30
2022-07-25T18:16:33.235Z,26.30
2022-07-25T18:19:35.150Z,26.30
2022-07-25T18:22:38.241Z,26.30
2022-07-25T18:25:40.107Z,26.30
2022-07-25T18:28:41.988Z,26.30
2022-07-25T18:31:44.818Z,26.30
2022-07-25T18:34:47.021Z,26.30
2022-07-25T18:37:48.934Z,26.30
2022-07-25T18:41:06.475Z,26.30
2022-07-25T18:44:12.556Z,26.30
2022-07-25T18:47:14.778Z,26.30
2022-07-25T18:50:19.752Z,26.30
2022-07-25T18:53:21.542Z,26.30
2022-07-25T18:56:23.416Z,26.20
2022-07-25T18:59:25.788Z,26.20
2022-07-25T19:02:27.684Z,26.20
2022-07-25T19:05:29.573Z,26.20
2022-07-25T19:08:33.463Z,26.10
2022-07-25T19:11:38.979Z,26.20
2022-07-25T19:14:44.257Z,26.20
2022-07-25T19:17:46.283Z,26.10
2022-07-25T19:20:48.148Z,26.10
2022-07-25T19:23:51.157Z,26.10
2022-07-25T19:26:53.162Z,26.10
2022-07-25T19:29:55.031Z,26.10
2022-07-25T19:32:57.308Z,26.10
2022-07-25T19:35:59.137Z,26.10
2022-07-25T19:39:01.335Z,26.10
2022-07-25T19:42:07.404Z,26.10
2022-07-25T19:45:09.958Z,26.10
2022-07-25T19:48:11.765Z,26.10
2022-07-25T19:51:13.858Z,26.10
2022-07-25T19:54:15.634Z,26.10
2022-07-25T19:57:17.425Z,26.10
2022-07-25T20:00:19.302Z,26.10
2022-07-25T20:03:23.341Z,26.10
2022-07-25T20:06:25.529Z,26.10
2022-07-25T20:09:27.301Z,26.10
2022-07-25T20:12:29.374Z,26.10
2022-07-25T20:15:31.276Z,26.10
2022-07-25T20:18:33.235Z,26.10
2022-07-25T20:21:39.381Z,26.10
2022-07-25T20:24:41.164Z,26.10
2022-07-25T20:27:43.101Z,26.10
2022-07-25T20:30:44.982Z,26.10
2022-07-25T20:33:46.889Z,26.10
2022-07-25T20:36:48.703Z,26.10
2022-07-25T20:39:50.485Z,26.10
2022-07-25T20:42:52.367Z,26.10
2022-07-25T20:45:54.318Z,26.10
2022-07-25T20:48:56.451Z,26.10
2022-07-25T20:51:58.518Z,26.10
2022-07-25T20:55:01.172Z,26.10
2022-07-25T20:58:08.374Z,26.10
2022-07-25T21:01:11.392Z,26.10
2022-07-25T21:04:13.264Z,26.10
2022-07-25T21:07:16.040Z,26.10
2022-07-25T21:10:17.882Z,26.10
2022-07-25T21:13:19.825Z,26.10
2022-07-25T21:16:21.701Z,26.10
2022-07-25T21:19:23.509Z,26.10
2022-07-25T21:22:25.710Z,26.10
2022-07-25T21:25:27.583Z,26.10
2022-07-25T21:28:29.357Z,26.10
2022-07-25T21:31:31.336Z,26.10
2022-07-25T21:34:33.500Z,26.00
2022-07-25T21:37:35.390Z,26.10
2022-07-25T21:40:37.270Z,26.00
2022-07-25T21:43:40.207Z,26.00
2022-07-25T21:46:42.290Z,26.00
2022-07-25T21:50:03.021Z,26.00
2022-07-25T21:53:07.365Z,26.00
2022-07-25T21:56:09.162Z,26.00
2022-07-25T21:59:11.280Z,26.00
2022-07-25T22:02:13.509Z,26.10
2022-07-25T22:05:18.703Z,26.10
2022-07-25T22:08:20.887Z,26.10
2022-07-25T22:11:39.116Z,26.10
2022-07-25T22:14:45.059Z,26.10
2022-07-25T22:17:49.745Z,26.10
2022-07-25T22:20:52.202Z,26.10
2022-07-25T22:23:54.112Z,26.00
2022-07-25T22:26:55.999Z,26.10
2022-07-25T22:29:57.793Z,26.10
2022-07-25T22:32:59.559Z,26.10
2022-07-25T22:36:01.760Z,26.10
2022-07-25T22:39:04.131Z,26.10
2022-07-25T22:42:06.451Z,26.10
2022-07-25T22:45:09.059Z,26.10
2022-07-25T22:48:10.887Z,26.10
2022-07-25T22:51:12.688Z,26.10
2022-07-25T22:54:14.483Z,26.00
2022-07-25T22:57:16.367Z,26.10
2022-07-25T23:00:18.311Z,26.10
2022-07-25T23:03:20.215Z,26.10
2022-07-25T23:06:22.247Z,26.00
2022-07-25T23:09:24.148Z,26.00
2022-07-25T23:12:31.065Z,26.10
2022-07-25T23:15:50.095Z,26.10
2022-07-25T23:18:52.246Z,26.00
2022-07-25T23:21:54.022Z,26.00
2022-07-25T23:24:56.368Z,26.00
2022-07-25T23:27:58.195Z,26.00
2022-07-25T23:31:00.067Z,26.00
2022-07-25T23:34:06.420Z,26.00
2022-07-25T23:37:08.239Z,26.00
2022-07-25T23:40:10.759Z,26.00
2022-07-25T23:43:12.598Z,26.00
2022-07-25T23:46:16.865Z,26.00
2022-07-25T23:49:20.332Z,25.90
2022-07-25T23:52:22.206Z,26.00
2022-07-25T23:55:24.158Z,25.90
2022-07-25T23:58:25.969Z,25.90
